sensor_id;sensor_type;location;lat;lon;timestamp;pressure;altitude;pressure_sealevel;temperature;humidity
4598;BME280;62772;48.646;8.906;2023-08-07T00:04:05;96160.50;;;10.50;100.00
4598;BME280;62772;48.646;8.906;2023-08-07T00:09:06;96155.13;;;10.42;100.00
4598;BME280;62772;48.646;8.906;2023-08-07T00:14:07;96165.34;;;10.40;100.00
4598;BME280;62772;48.646;8.906;2023-08-07T00:19:07;96167.97;;;10.31;100.00
4598;BME280;62772;48.646;8.906;2023-08-07T00:24:08;96166.09;;;10.31;100.00
4598;BME280;62772;48.646;8.906;2023-08-07T00:29:08;96165.63;;;10.29;100.00
4598;BME280;62772;48.646;8.906;2023-08-07T00:34:09;96175.41;;;10.43;100.00
4598;BME280;62772;48.646;8.906;2023-08-07T00:39:10;96174.88;;;10.32;100.00
4598;BME280;62772;48.646;8.906;2023-08-07T00:44:13;96174.44;;;10.39;100.00
4598;BME280;62772;48.646;8.906;2023-08-07T00:49:14;96184.34;;;10.38;100.00
4598;BME280;62772;48.646;8.906;2023-08-07T00:54:18;96185.53;;;10.32;100.00
4598;BME280;62772;48.646;8.906;2023-08-07T00:59:18;96182.94;;;10.41;100.00
4598;BME280;62772;48.646;8.906;2023-08-07T01:04:19;96186.38;;;10.41;100.00
4598;BME280;62772;48.646;8.906;2023-08-07T01:09:21;96193.78;;;10.44;100.00
4598;BME280;62772;48.646;8.906;2023-08-07T01:14:46;96196.38;;;10.18;100.00
4598;BME280;62772;48.646;8.906;2023-08-07T01:19:51;96202.25;;;10.38;100.00
4598;BME280;62772;48.646;8.906;2023-08-07T01:24:52;96198.78;;;10.37;100.00
4598;BME280;62772;48.646;8.906;2023-08-07T01:35:02;96198.69;;;10.20;100.00
4598;BME280;62772;48.646;8.906;2023-08-07T01:40:06;96203.91;;;10.25;100.00
4598;BME280;62772;48.646;8.906;2023-08-07T01:45:08;96208.00;;;10.31;100.00
4598;BME280;62772;48.646;8.906;2023-08-07T01:50:08;96206.91;;;10.32;100.00
4598;BME280;62772;48.646;8.906;2023-08-07T01:55:09;96216.53;;;10.42;100.00
4598;BME280;62772;48.646;8.906;2023-08-07T02:00:10;96225.84;;;10.13;100.00
4598;BME280;62772;48.646;8.906;2023-08-07T02:05:15;96220.53;;;10.22;100.00
4598;BME280;62772;48.646;8.906;2023-08-07T02:10:16;96211.47;;;10.31;100.00
4598;BME280;62772;48.646;8.906;2023-08-07T02:15:16;96215.38;;;10.25;100.00
4598;BME280;62772;48.646;8.906;2023-08-07T02:20:18;96219.19;;;10.42;100.00
4598;BME280;62772;48.646;8.906;2023-08-07T02:25:19;96222.25;;;10.17;100.00
4598;BME280;62772;48.646;8.906;2023-08-07T02:30:19;96240.69;;;10.37;100.00
4598;BME280;62772;48.646;8.906;2023-08-07T02:35:20;96237.19;;;10.27;100.00
4598;BME280;62772;48.646;8.906;2023-08-07T02:40:20;96231.06;;;10.18;100.00
4598;BME280;62772;48.646;8.906;2023-08-07T02:45:21;96227.69;;;10.44;100.00
4598;BME280;62772;48.646;8.906;2023-08-07T02:50:21;96231.91;;;10.36;100.00
4598;BME280;62772;48.646;8.906;2023-08-07T02:55:22;96231.59;;;10.38;100.00
4598;BME280;62772;48.646;8.906;2023-08-07T03:00:22;96238.41;;;10.21;100.00
4598;BME280;62772;48.646;8.906;2023-08-07T03:05:23;96232.66;;;10.28;100.00
4598;BME280;62772;48.646;8.906;2023-08-07T03:10:23;96236.72;;;10.25;100.00
4598;BME280;62772;48.646;8.906;2023-08-07T03:15:24;96248.47;;;10.24;100.00
4598;BME280;62772;48.646;8.906;2023-08-07T03:20:24;96235.44;;;10.23;100.00
4598;BME280;62772;48.646;8.906;2023-08-07T03:25:24;96243.06;;;10.38;100.00
4598;BME280;62772;48.646;8.906;2023-08-07T03:30:25;96249.09;;;10.21;100.00
4598;BME280;62772;48.646;8.906;2023-08-07T03:35:26;96252.19;;;10.06;100.00
4598;BME280;62772;48.646;8.906;2023-08-07T03:40:27;96248.09;;;10.08;100.00
4598;BME280;62772;48.646;8.906;2023-08-07T03:45:28;96250.50;;;10.19;100.00
4598;BME280;62772;48.646;8.906;2023-08-07T03:50:29;96259.38;;;10.37;100.00
4598;BME280;62772;48.646;8.906;2023-08-07T03:55:31;96256.84;;;10.31;100.00
4598;BME280;62772;48.646;8.906;2023-08-07T04:00:32;96255.72;;;10.24;100.00
4598;BME280;62772;48.646;8.906;2023-08-07T04:05:33;96255.31;;;10.39;100.00
4598;BME280;62772;48.646;8.906;2023-08-07T04:10:35;96261.19;;;10.19;100.00
4598;BME280;62772;48.646;8.906;2023-08-07T04:15:35;96254.53;;;10.39;100.00
4598;BME280;62772;48.646;8.906;2023-08-07T04:20:36;96257.66;;;10.01;100.00
4598;BME280;62772;48.646;8.906;2023-08-07T04:25:36;96263.19;;;10.13;100.00
4598;BME280;62772;48.646;8.906;2023-08-07T04:30:36;96259.16;;;10.24;100.00
4598;BME280;62772;48.646;8.906;2023-08-07T04:35:37;96268.50;;;10.04;100.00
4598;BME280;62772;48.646;8.906;2023-08-07T04:40:37;96273.88;;;10.13;100.00
4598;BME280;62772;48.646;8.906;2023-08-07T04:45:38;96276.59;;;10.22;100.00
4598;BME280;62772;48.646;8.906;2023-08-07T04:50:40;96277.41;;;10.31;100.00
4598;BME280;62772;48.646;8.906;2023-08-07T04:55:40;96279.97;;;10.36;100.00
4598;BME280;62772;48.646;8.906;2023-08-07T05:00:41;96277.75;;;10.07;100.00
4598;BME280;62772;48.646;8.906;2023-08-07T05:05:41;96283.47;;;10.45;100.00
4598;BME280;62772;48.646;8.906;2023-08-07T05:10:42;96276.84;;;10.43;100.00
4598;BME280;62772;48.646;8.906;2023-08-07T05:15:42;96280.38;;;10.29;100.00
4598;BME280;62772;48.646;8.906;2023-08-07T05:20:42;96278.75;;;10.51;100.00
4598;BME280;62772;48.646;8.906;2023-08-07T05:25:46;96285.38;;;10.53;100.00
4598;BME280;62772;48.646;8.906;2023-08-07T05:30:47;96290.25;;;10.51;100.00
4598;BME280;62772;48.646;8.906;2023-08-07T05:35:47;96289.31;;;10.65;100.00
4598;BME280;62772;48.646;8.906;2023-08-07T05:40:48;96305.94;;;10.53;100.00
4598;BME280;62772;48.646;8.906;2023-08-07T05:45:48;96299.06;;;10.69;100.00
4598;BME280;62772;48.646;8.906;2023-08-07T05:50:51;96290.91;;;10.75;100.00
4598;BME280;62772;48.646;8.906;2023-08-07T05:55:51;96298.47;;;10.81;100.00
4598;BME280;62772;48.646;8.906;2023-08-07T06:00:51;96301.44;;;10.71;100.00
4598;BME280;62772;48.646;8.906;2023-08-07T06:05:52;96310.53;;;10.61;100.00
4598;BME280;62772;48.646;8.906;2023-08-07T06:10:52;96309.59;;;10.75;100.00
4598;BME280;62772;48.646;8.906;2023-08-07T06:15:53;96313.56;;;10.77;100.00
4598;BME280;62772;48.646;8.906;2023-08-07T06:20:54;96309.50;;;10.88;100.00
4598;BME280;62772;48.646;8.906;2023-08-07T06:25:55;96319.50;;;10.74;100.00
4598;BME280;62772;48.646;8.906;2023-08-07T06:31:01;96320.66;;;10.91;100.00
4598;BME280;62772;48.646;8.906;2023-08-07T06:36:03;96330.06;;;10.88;100.00
4598;BME280;62772;48.646;8.906;2023-08-07T06:41:05;96347.69;;;10.89;100.00
4598;BME280;62772;48.646;8.906;2023-08-07T06:46:05;96349.72;;;10.92;100.00
4598;BME280;62772;48.646;8.906;2023-08-07T06:51:06;96335.00;;;11.12;100.00
4598;BME280;62772;48.646;8.906;2023-08-07T06:56:06;96339.84;;;11.10;100.00
4598;BME280;62772;48.646;8.906;2023-08-07T07:01:06;96339.22;;;11.04;100.00
4598;BME280;62772;48.646;8.906;2023-08-07T07:06:07;96344.44;;;11.18;100.00
4598;BME280;62772;48.646;8.906;2023-08-07T07:11:08;96345.38;;;11.40;100.00
4598;BME280;62772;48.646;8.906;2023-08-07T07:16:09;96346.34;;;11.44;100.00
4598;BME280;62772;48.646;8.906;2023-08-07T07:21:11;96355.94;;;11.54;100.00
4598;BME280;62772;48.646;8.906;2023-08-07T07:26:12;96365.88;;;11.71;100.00
4598;BME280;62772;48.646;8.906;2023-08-07T07:31:12;96360.03;;;11.77;100.00
4598;BME280;62772;48.646;8.906;2023-08-07T07:36:15;96368.41;;;11.93;100.00
4598;BME280;62772;48.646;8.906;2023-08-07T07:41:16;96378.13;;;12.15;100.00
4598;BME280;62772;48.646;8.906;2023-08-07T07:46:17;96381.09;;;12.31;100.00
4598;BME280;62772;48.646;8.906;2023-08-07T07:51:18;96385.75;;;12.43;100.00
4598;BME280;62772;48.646;8.906;2023-08-07T07:56:18;96381.09;;;12.31;100.00
4598;BME280;62772;48.646;8.906;2023-08-07T08:01:18;96392.84;;;12.48;100.00
4598;BME280;62772;48.646;8.906;2023-08-07T08:06:19;96389.78;;;12.67;100.00
4598;BME280;62772;48.646;8.906;2023-08-07T08:11:19;96392.06;;;12.86;100.00
4598;BME280;62772;48.646;8.906;2023-08-07T08:16:20;96401.72;;;12.78;100.00
4598;BME280;62772;48.646;8.906;2023-08-07T08:21:20;96392.66;;;12.92;100.00
4598;BME280;62772;48.646;8.906;2023-08-07T08:26:21;96403.97;;;13.06;100.00
4598;BME280;62772;48.646;8.906;2023-08-07T08:31:21;96389.88;;;13.18;94.79
4598;BME280;62772;48.646;8.906;2023-08-07T08:36:24;96392.66;;;12.92;98.80
4598;BME280;62772;48.646;8.906;2023-08-07T08:41:25;96388.22;;;13.04;100.00
4598;BME280;62772;48.646;8.906;2023-08-07T08:46:28;96394.50;;;13.30;89.18
4598;BME280;62772;48.646;8.906;2023-08-07T08:51:30;96385.25;;;13.27;89.63
4598;BME280;62772;48.646;8.906;2023-08-07T08:56:30;96400.00;;;13.63;86.09
4598;BME280;62772;48.646;8.906;2023-08-07T09:01:31;96397.84;;;13.77;81.88
4598;BME280;62772;48.646;8.906;2023-08-07T09:06:32;96396.50;;;13.71;77.62
4598;BME280;62772;48.646;8.906;2023-08-07T09:11:33;96395.03;;;13.53;80.16
4598;BME280;62772;48.646;8.906;2023-08-07T09:16:35;96391.75;;;13.47;83.96
4598;BME280;62772;48.646;8.906;2023-08-07T09:21:36;96403.94;;;13.66;84.63
4598;BME280;62772;48.646;8.906;2023-08-07T09:26:38;96410.78;;;13.96;88.65
4598;BME280;62772;48.646;8.906;2023-08-07T09:31:45;96421.41;;;13.93;88.00
4598;BME280;62772;48.646;8.906;2023-08-07T09:36:46;96423.13;;;13.76;83.25
4598;BME280;62772;48.646;8.906;2023-08-07T09:41:51;96431.09;;;14.06;84.57
4598;BME280;62772;48.646;8.906;2023-08-07T09:46:51;96432.59;;;13.74;81.51
4598;BME280;62772;48.646;8.906;2023-08-07T09:51:52;96442.81;;;13.81;87.00
4598;BME280;62772;48.646;8.906;2023-08-07T09:56:55;96447.53;;;13.84;87.22
4598;BME280;62772;48.646;8.906;2023-08-07T10:01:56;96442.88;;;13.93;88.94
4598;BME280;62772;48.646;8.906;2023-08-07T10:06:57;96448.06;;;13.77;85.26
4598;BME280;62772;48.646;8.906;2023-08-07T10:11:59;96447.69;;;13.87;91.52
4598;BME280;62772;48.646;8.906;2023-08-07T10:17:00;96445.56;;;13.93;92.15
4598;BME280;62772;48.646;8.906;2023-08-07T10:22:02;96438.25;;;14.36;86.06
4598;BME280;62772;48.646;8.906;2023-08-07T10:27:04;96444.88;;;14.38;82.80
4598;BME280;62772;48.646;8.906;2023-08-07T10:32:07;96451.44;;;14.28;83.00
4598;BME280;62772;48.646;8.906;2023-08-07T10:37:08;96451.25;;;14.46;80.56
4598;BME280;62772;48.646;8.906;2023-08-07T10:42:11;96454.00;;;14.25;81.19
4598;BME280;62772;48.646;8.906;2023-08-07T10:47:12;96455.28;;;14.06;82.86
4598;BME280;62772;48.646;8.906;2023-08-07T10:52:14;96459.41;;;14.37;87.56
4598;BME280;62772;48.646;8.906;2023-08-07T10:57:17;96461.56;;;14.77;85.96
4598;BME280;62772;48.646;8.906;2023-08-07T11:02:24;96467.31;;;14.88;86.47
4598;BME280;62772;48.646;8.906;2023-08-07T11:07:29;96460.94;;;14.93;83.37
4598;BME280;62772;48.646;8.906;2023-08-07T11:12:29;96466.75;;;14.95;82.58
4598;BME280;62772;48.646;8.906;2023-08-07T11:17:30;96467.78;;;15.15;84.44
4598;BME280;62772;48.646;8.906;2023-08-07T11:22:31;96471.91;;;14.87;85.20
4598;BME280;62772;48.646;8.906;2023-08-07T11:27:31;96466.88;;;14.98;89.21
4598;BME280;62772;48.646;8.906;2023-08-07T11:32:32;96455.91;;;15.40;82.22
4598;BME280;62772;48.646;8.906;2023-08-07T11:37:32;96469.13;;;15.09;82.83
4598;BME280;62772;48.646;8.906;2023-08-07T11:42:33;96469.41;;;14.49;83.62
4598;BME280;62772;48.646;8.906;2023-08-07T11:47:33;96469.25;;;14.33;82.23
4598;BME280;62772;48.646;8.906;2023-08-07T11:52:34;96463.47;;;14.43;85.51
4598;BME280;62772;48.646;8.906;2023-08-07T11:57:34;96469.06;;;14.72;83.46
4598;BME280;62772;48.646;8.906;2023-08-07T12:02:40;96476.31;;;14.38;85.38
4598;BME280;62772;48.646;8.906;2023-08-07T12:07:41;96480.31;;;14.31;84.78
4598;BME280;62772;48.646;8.906;2023-08-07T12:12:42;96487.34;;;14.03;86.36
4598;BME280;62772;48.646;8.906;2023-08-07T12:17:43;96473.44;;;14.22;81.53
4598;BME280;62772;48.646;8.906;2023-08-07T12:22:43;96474.75;;;14.37;84.70
4598;BME280;62772;48.646;8.906;2023-08-07T12:27:44;96478.28;;;14.28;83.52
4598;BME280;62772;48.646;8.906;2023-08-07T12:32:47;96474.34;;;14.47;85.40
4598;BME280;62772;48.646;8.906;2023-08-07T12:37:48;96480.78;;;14.33;88.83
4598;BME280;62772;48.646;8.906;2023-08-07T12:42:51;96482.44;;;14.26;92.65
4598;BME280;62772;48.646;8.906;2023-08-07T12:47:52;96500.13;;;14.06;88.73
4598;BME280;62772;48.646;8.906;2023-08-07T12:52:52;96497.38;;;14.14;87.87
4598;BME280;62772;48.646;8.906;2023-08-07T12:57:53;96494.59;;;14.44;89.28
4598;BME280;62772;48.646;8.906;2023-08-07T13:02:54;96490.69;;;14.75;88.04
4598;BME280;62772;48.646;8.906;2023-08-07T13:07:58;96484.34;;;15.04;85.87
4598;BME280;62772;48.646;8.906;2023-08-07T13:12:59;96482.91;;;15.32;81.65
4598;BME280;62772;48.646;8.906;2023-08-07T13:18:01;96487.97;;;15.09;79.63
4598;BME280;62772;48.646;8.906;2023-08-07T13:23:03;96497.47;;;14.94;79.66
4598;BME280;62772;48.646;8.906;2023-08-07T13:28:06;96492.28;;;14.88;81.00
4598;BME280;62772;48.646;8.906;2023-08-07T13:33:06;96486.28;;;15.66;81.31
4598;BME280;62772;48.646;8.906;2023-08-07T13:38:08;96476.97;;;15.88;76.14
4598;BME280;62772;48.646;8.906;2023-08-07T13:43:10;96485.22;;;16.07;76.94
4598;BME280;62772;48.646;8.906;2023-08-07T13:48:10;96488.38;;;15.97;74.58
4598;BME280;62772;48.646;8.906;2023-08-07T13:53:11;96485.03;;;16.28;77.71
4598;BME280;62772;48.646;8.906;2023-08-07T13:58:12;96478.97;;;16.60;66.68
4598;BME280;62772;48.646;8.906;2023-08-07T14:03:15;96487.75;;;16.57;67.91
4598;BME280;62772;48.646;8.906;2023-08-07T14:08:16;96487.22;;;16.23;69.02
4598;BME280;62772;48.646;8.906;2023-08-07T14:13:16;96488.59;;;16.45;65.63
4598;BME280;62772;48.646;8.906;2023-08-07T14:18:17;96500.97;;;16.33;69.22
4598;BME280;62772;48.646;8.906;2023-08-07T14:23:17;96497.78;;;16.44;69.27
4598;BME280;62772;48.646;8.906;2023-08-07T14:28:18;96502.50;;;16.47;70.37
4598;BME280;62772;48.646;8.906;2023-08-07T14:33:19;96525.53;;;16.04;74.36
4598;BME280;62772;48.646;8.906;2023-08-07T14:38:19;96529.91;;;15.71;73.59
4598;BME280;62772;48.646;8.906;2023-08-07T14:43:20;96535.97;;;15.68;74.39
4598;BME280;62772;48.646;8.906;2023-08-07T14:48:20;96535.19;;;15.55;79.76
4598;BME280;62772;48.646;8.906;2023-08-07T14:53:21;96515.56;;;15.67;81.31
4598;BME280;62772;48.646;8.906;2023-08-07T14:58:21;96516.91;;;15.73;79.27
4598;BME280;62772;48.646;8.906;2023-08-07T15:03:22;96509.72;;;16.02;79.46
4598;BME280;62772;48.646;8.906;2023-08-07T15:08:22;96511.34;;;16.19;81.67
4598;BME280;62772;48.646;8.906;2023-08-07T15:13:23;96498.59;;;16.32;79.58
4598;BME280;62772;48.646;8.906;2023-08-07T15:18:23;96492.13;;;16.77;73.50
4598;BME280;62772;48.646;8.906;2023-08-07T15:23:24;96492.53;;;16.92;66.75
4598;BME280;62772;48.646;8.906;2023-08-07T15:28:24;96508.09;;;16.70;67.17
4598;BME280;62772;48.646;8.906;2023-08-07T15:33:25;96519.19;;;16.24;70.79
4598;BME280;62772;48.646;8.906;2023-08-07T15:38:26;96519.56;;;16.10;76.50
4598;BME280;62772;48.646;8.906;2023-08-07T15:43:28;96517.28;;;16.25;74.83
4598;BME280;62772;48.646;8.906;2023-08-07T15:48:29;96518.78;;;16.38;76.44
4598;BME280;62772;48.646;8.906;2023-08-07T15:53:29;96515.00;;;16.67;74.88
4598;BME280;62772;48.646;8.906;2023-08-07T15:58:30;96521.50;;;16.66;71.39
4598;BME280;62772;48.646;8.906;2023-08-07T16:03:31;96523.03;;;16.52;76.21
4598;BME280;62772;48.646;8.906;2023-08-07T16:08:31;96505.44;;;16.42;75.48
4598;BME280;62772;48.646;8.906;2023-08-07T16:13:32;96514.16;;;16.51;74.48
4598;BME280;62772;48.646;8.906;2023-08-07T16:18:32;96507.53;;;16.48;78.25
4598;BME280;62772;48.646;8.906;2023-08-07T16:23:33;96504.13;;;16.64;70.79
4598;BME280;62772;48.646;8.906;2023-08-07T16:28:33;96498.41;;;16.81;72.47
4598;BME280;62772;48.646;8.906;2023-08-07T16:33:34;96505.41;;;16.70;70.70
4598;BME280;62772;48.646;8.906;2023-08-07T16:38:34;96514.16;;;16.23;69.80
4598;BME280;62772;48.646;8.906;2023-08-07T16:43:35;96514.34;;;15.89;74.63
4598;BME280;62772;48.646;8.906;2023-08-07T16:48:35;96519.34;;;16.03;77.24
4598;BME280;62772;48.646;8.906;2023-08-07T16:53:36;96521.72;;;15.68;80.63
4598;BME280;62772;48.646;8.906;2023-08-07T16:58:36;96527.78;;;15.52;83.72
4598;BME280;62772;48.646;8.906;2023-08-07T17:03:39;96522.53;;;15.56;87.07
4598;BME280;62772;48.646;8.906;2023-08-07T17:08:40;96526.44;;;15.71;88.41
4598;BME280;62772;48.646;8.906;2023-08-07T17:13:41;96519.81;;;16.05;84.97
4598;BME280;62772;48.646;8.906;2023-08-07T17:18:41;96527.91;;;16.33;83.35
4598;BME280;62772;48.646;8.906;2023-08-07T17:23:41;96523.81;;;16.52;89.11
4598;BME280;62772;48.646;8.906;2023-08-07T17:28:45;96519.59;;;16.39;86.65
4598;BME280;62772;48.646;8.906;2023-08-07T17:33:45;96519.59;;;15.98;84.84
4598;BME280;62772;48.646;8.906;2023-08-07T17:38:46;96514.50;;;16.21;85.00
4598;BME280;62772;48.646;8.906;2023-08-07T17:43:46;96522.66;;;16.25;81.88
4598;BME280;62772;48.646;8.906;2023-08-07T17:48:46;96520.91;;;16.17;82.79
4598;BME280;62772;48.646;8.906;2023-08-07T17:53:47;96528.78;;;15.97;84.70
4598;BME280;62772;48.646;8.906;2023-08-07T17:58:47;96529.13;;;15.71;83.88
4598;BME280;62772;48.646;8.906;2023-08-07T18:03:48;96531.47;;;15.97;84.17
4598;BME280;62772;48.646;8.906;2023-08-07T18:08:49;96530.84;;;15.88;86.92
4598;BME280;62772;48.646;8.906;2023-08-07T18:13:49;96536.91;;;15.85;87.14
4598;BME280;62772;48.646;8.906;2023-08-07T18:18:50;96543.25;;;15.68;88.68
4598;BME280;62772;48.646;8.906;2023-08-07T18:23:50;96545.75;;;15.85;93.66
4598;BME280;62772;48.646;8.906;2023-08-07T18:28:51;96549.78;;;15.91;90.29
4598;BME280;62772;48.646;8.906;2023-08-07T18:33:51;96550.78;;;15.74;95.18
4598;BME280;62772;48.646;8.906;2023-08-07T18:38:52;96556.28;;;15.53;95.68
4598;BME280;62772;48.646;8.906;2023-08-07T18:43:52;96561.31;;;15.42;95.79
4598;BME280;62772;48.646;8.906;2023-08-07T18:48:53;96560.31;;;15.59;93.08
4598;BME280;62772;48.646;8.906;2023-08-07T18:53:55;96562.34;;;15.63;96.20
4598;BME280;62772;48.646;8.906;2023-08-07T18:58:55;96561.53;;;15.74;96.31
4598;BME280;62772;48.646;8.906;2023-08-07T19:03:56;96560.31;;;15.47;96.61
4598;BME280;62772;48.646;8.906;2023-08-07T19:08:56;96562.00;;;15.52;98.65
4598;BME280;62772;48.646;8.906;2023-08-07T19:13:57;96564.44;;;15.57;100.00
4598;BME280;62772;48.646;8.906;2023-08-07T19:18:57;96564.44;;;15.57;96.23
4598;BME280;62772;48.646;8.906;2023-08-07T19:23:58;96572.66;;;15.48;97.05
4598;BME280;62772;48.646;8.906;2023-08-07T19:28:58;96569.50;;;15.46;100.00
4598;BME280;62772;48.646;8.906;2023-08-07T19:33:59;96570.84;;;15.40;100.00
4598;BME280;62772;48.646;8.906;2023-08-07T19:38:59;96567.78;;;14.83;100.00
4598;BME280;62772;48.646;8.906;2023-08-07T19:43:59;96560.53;;;14.63;100.00
4598;BME280;62772;48.646;8.906;2023-08-07T19:49:00;96556.72;;;14.01;100.00
4598;BME280;62772;48.646;8.906;2023-08-07T19:54:01;96559.97;;;12.82;100.00
4598;BME280;62772;48.646;8.906;2023-08-07T19:59:01;96575.16;;;12.25;100.00
4598;BME280;62772;48.646;8.906;2023-08-07T20:04:02;96572.94;;;12.36;100.00
4598;BME280;62772;48.646;8.906;2023-08-07T20:09:09;96575.59;;;12.10;100.00
4598;BME280;62772;48.646;8.906;2023-08-07T20:14:10;96574.66;;;12.14;100.00
4598;BME280;62772;48.646;8.906;2023-08-07T20:19:10;96571.97;;;12.06;100.00
4598;BME280;62772;48.646;8.906;2023-08-07T20:24:10;96570.41;;;12.31;100.00
4598;BME280;62772;48.646;8.906;2023-08-07T20:29:11;96575.00;;;12.48;100.00
4598;BME280;62772;48.646;8.906;2023-08-07T20:34:11;96584.75;;;12.35;100.00
4598;BME280;62772;48.646;8.906;2023-08-07T20:39:13;96570.56;;;12.61;100.00
4598;BME280;62772;48.646;8.906;2023-08-07T20:44:13;96572.75;;;12.85;100.00
4598;BME280;62772;48.646;8.906;2023-08-07T20:49:14;96572.09;;;13.05;100.00
4598;BME280;62772;48.646;8.906;2023-08-07T20:54:14;96564.97;;;13.10;100.00
4598;BME280;62772;48.646;8.906;2023-08-07T20:59:15;96554.72;;;13.20;100.00
4598;BME280;62772;48.646;8.906;2023-08-07T21:04:15;96548.34;;;13.25;100.00
4598;BME280;62772;48.646;8.906;2023-08-07T21:09:16;96539.34;;;13.38;100.00
4598;BME280;62772;48.646;8.906;2023-08-07T21:14:16;96546.13;;;13.36;100.00
4598;BME280;62772;48.646;8.906;2023-08-07T21:19:17;96550.56;;;13.23;100.00
4598;BME280;62772;48.646;8.906;2023-08-07T21:24:17;96548.66;;;12.32;100.00
4598;BME280;62772;48.646;8.906;2023-08-07T21:29:18;96540.94;;;12.75;100.00
4598;BME280;62772;48.646;8.906;2023-08-07T21:34:18;96534.03;;;13.21;100.00
4598;BME280;62772;48.646;8.906;2023-08-07T21:39:18;96540.97;;;13.22;100.00
4598;BME280;62772;48.646;8.906;2023-08-07T21:44:19;96540.97;;;13.22;100.00
4598;BME280;62772;48.646;8.906;2023-08-07T21:49:20;96531.66;;;13.19;100.00
4598;BME280;62772;48.646;8.906;2023-08-07T21:54:20;96536.84;;;13.24;100.00
4598;BME280;62772;48.646;8.906;2023-08-07T21:59:20;96530.41;;;12.52;100.00
4598;BME280;62772;48.646;8.906;2023-08-07T22:04:21;96533.84;;;12.26;100.00
4598;BME280;62772;48.646;8.906;2023-08-07T22:09:21;96527.56;;;12.22;100.00
4598;BME280;62772;48.646;8.906;2023-08-07T22:14:22;96517.31;;;12.50;100.00
4598;BME280;62772;48.646;8.906;2023-08-07T22:19:23;96513.53;;;12.60;100.00
4598;BME280;62772;48.646;8.906;2023-08-07T22:24:23;96512.25;;;12.66;100.00
4598;BME280;62772;48.646;8.906;2023-08-07T22:29:23;96504.97;;;12.76;100.00
4598;BME280;62772;48.646;8.906;2023-08-07T22:34:24;96509.09;;;12.73;100.00
4598;BME280;62772;48.646;8.906;2023-08-07T22:39:24;96501.66;;;12.87;100.00
4598;BME280;62772;48.646;8.906;2023-08-07T22:44:25;96504.06;;;12.72;100.00
4598;BME280;62772;48.646;8.906;2023-08-07T22:49:25;96498.19;;;12.78;100.00
4598;BME280;62772;48.646;8.906;2023-08-07T22:54:26;96494.94;;;12.55;100.00
4598;BME280;62772;48.646;8.906;2023-08-07T22:59:26;96485.47;;;12.66;100.00
4598;BME280;62772;48.646;8.906;2023-08-07T23:04:27;96485.19;;;12.33;100.00
4598;BME280;62772;48.646;8.906;2023-08-07T23:09:27;96479.31;;;12.66;100.00
4598;BME280;62772;48.646;8.906;2023-08-07T23:14:28;96471.47;;;12.52;100.00
4598;BME280;62772;48.646;8.906;2023-08-07T23:19:28;96466.75;;;12.49;100.00
4598;BME280;62772;48.646;8.906;2023-08-07T23:24:29;96467.38;;;12.37;100.00
4598;BME280;62772;48.646;8.906;2023-08-07T23:29:29;96469.34;;;12.75;100.00
4598;BME280;62772;48.646;8.906;2023-08-07T23:34:29;96468.81;;;12.26;100.00
4598;BME280;62772;48.646;8.906;2023-08-07T23:39:30;96468.34;;;12.24;100.00
4598;BME280;62772;48.646;8.906;2023-08-07T23:44:30;96457.94;;;12.31;100.00
4598;BME280;62772;48.646;8.906;2023-08-07T23:49:31;96459.03;;;12.39;100.00
4598;BME280;62772;48.646;8.906;2023-08-07T23:54:32;96460.41;;;12.62;100.00
4598;BME280;62772;48.646;8.906;2023-08-07T23:59:32;96449.13;;;12.39;100.00
